Historyczne dane pomiarowe

Dodano dane terminowe – wersja testowa.

Dane z okresu 1951-2019

Wersja bazy: 1.34 [2019-03-16, lista zmian], aktualizacja planowana na 2019-04-15

Dane meteo z obszaru Polski uzyskane na podstawie danych udostępnionych przez Instytut Meteorologii i Gospodarki Wodnej – Państwowy Instytut Badawczy.

 

Wybierz Datę:    

       

TemperaturaWilgotnośćWiatrCiśnienieOpadyŚniegCzas trwania zjawisk
 Stacja t tx tn tng RH VA  wxwx mslp ppp RRR   cm mm wxwxwxwxwxwxwx
1994-08-14 14.7 18.8 11.8--- 4.0 5.0---- 0.0------------
1994-08-13 17.1 22.0 14.7--- 6.7 4.0---- 3.3------------
1994-08-12 17.2 19.6 16.2--- 7.0 2.0---- 0.9------------
1994-08-11 17.9 23.0 12.9--- 6.7 2.3---- 5.5------------
1994-08-10 19.9 25.6 15.7--- 5.0 3.0---- 0.0------------
1994-08-09 20.2 26.4 16.7--- 7.3 3.3---- 38.9------------
1994-08-08 21.2 27.6 16.4--- 7.7 2.3---- 2.7------------
1994-08-07 23.2 30.6 12.0--- 5.0 2.0---- 1.7------------
1994-08-06 24.5 32.8 13.5--- 1.0 2.0---- 0.0------------
1994-08-05 24.2 32.1 13.8--- 3.3 2.3---- 0.0------------
1994-08-04 22.4 29.6 14.6--- 5.0 2.7---- 0.5------------
1994-08-03 24.2 31.1 16.2--- 1.0 3.0---- 0.0------------
1994-08-02 25.1 32.6 15.8--- 5.3 2.3---- 0.0------------
1994-08-01 26.2 35.3 15.1--- 4.0 2.3---- 0.0------------
1994-07-31 25.6 34.8 14.6--- 2.0 1.3---- 0.0------------
1994-07-30 25.7 34.6 14.5--- 2.3 1.7---- 0.0------------
1994-07-29 24.5 34.6 12.7--- 3.0 2.3---- 0.0------------
1994-07-28 24.4 33.6 13.8--- 2.0 2.0---- 0.0------------
1994-07-27 23.9 33.6 13.3--- 2.7 2.3---- 0.0------------
1994-07-26 23.6 32.6 12.8--- 4.3 2.0---- 0.0------------
1994-07-25 23.1 31.1 12.1--- 2.0 1.7---- 0.0------------
1994-07-24 22.1 30.0 10.9--- 1.7 2.3---- 0.0------------
1994-07-23 20.7 28.2 11.3--- 2.7 1.7---- 0.0------------
1994-07-22 19.5 26.6 9.6--- 1.0 2.7---- 0.0------------
1994-07-21 19.5 27.0 8.9--- 0.7 2.0---- 0.0------------
1994-07-20 17.6 24.2 9.4--- 2.3 2.7---- 0.0------------
1994-07-19 19.1 24.2 13.7--- 4.0 1.7---- 0.0------------
1994-07-18 19.1 25.6 16.9--- 6.0 2.0---- 17.6------------
1994-07-17 22.2 28.1 15.7--- 5.0 2.0---- 0.0------------
1994-07-16 22.9 31.2 12.9--- 2.7 2.7---- 0.0------------
1994-07-15 23.6 28.6 14.2--- 3.0 3.0---- 0.0------------
1994-07-14 22.2 29.2 13.6--- 3.7 2.0---- 0.0------------
1994-07-13 23.3 29.4 12.6--- 1.3 2.0---- 0.0------------
1994-07-12 22.3 28.3 11.0--- 1.3 2.3---- 0.0------------
1994-07-11 18.2 23.2 10.6--- 4.0 2.3---- 0.0------------
1994-07-10 16.5 24.0 11.3--- 5.0 2.0---- 22.2------------
1994-07-09 14.7 18.6 12.1--- 6.0 3.3---- 14.7------------
1994-07-08 17.5 22.8 15.4--- 6.0 3.7---- 0.6------------
1994-07-07 20.7 27.6 13.2--- 3.0 2.0---- 1.3------------
1994-07-06 18.7 25.1 7.5--- 2.3 2.0---- 0.0------------
1994-07-05 19.6 26.1 10.2--- 4.7 2.7---- 0.0------------
1994-07-04 19.3 26.4 9.2--- 0.0 2.0---- 0.0------------
1994-07-03 18.3 24.7 8.2--- 1.0 2.3---- 0.0------------
1994-07-02 17.5 23.7 8.5--- 0.0 3.0---- 0.0------------
1994-07-01 19.1 23.2 10.0--- 5.0 3.3---- 0.0------------
1994-06-30 20.8 28.1 16.2--- 6.0 2.7---- 1.8------------
1994-06-29 24.1 30.0 14.7--- 0.0 2.3---- 0.0------------
1994-06-28 23.1 28.6 15.2--- 0.0 2.3---- 0.0------------
1994-06-27 25.3 31.6 19.3--- 3.0 3.0---- 0.0------------
1994-06-26 21.0 29.0 11.6--- 0.0 3.3---- 0.0------------
1994-06-25 15.3 22.2 5.3--- 0.3 3.0---- 0.0------------
1994-06-24 14.3 19.2 7.4--- 3.3 5.0---- 0.0------------
1994-06-23 18.0 22.9 15.3--- 3.0 8.3---- 0.0------------
1994-06-22 18.6 26.1 8.0--- 6.0 3.0---- 0.0------------
1994-06-21 14.8 20.2 7.3--- 5.0 2.3---- 0.0------------
1994-06-20 17.3 20.2 13.7--- 4.0 5.0---- 0.0------------
1994-06-19 16.1 22.0 11.0--- 7.3 3.3---- 0.0------------
1994-06-18 12.7 18.7 3.1--- 5.3 2.7---- 8.8------------
1994-06-17 11.9 15.2 8.8--- 6.0 4.0---- 0.6------------
1994-06-16 12.3 16.2 4.9--- 7.7 3.3---- 2.1------------
296.5 ms

 

Źródłem pochodzenia danych jest Instytut Meteorologii i Gospodarki Wodnej – Państwowy Instytut Badawczy. Dane Instytutu Meteorologii i Gospodarki Wodnej – Państwowego Instytutu Badawczego zostały przetworzone.

Dane źródłowe można odnaleźć na stronie https://dane.imgw.pl